Time,TemperatureF,DewpointF,PressureIn,WindDirection,WindDirectionDegrees,WindSpeedMPH,WindSpeedGustMPH,Humidity,HourlyPrecipIn,Conditions,Clouds,dailyrainin,SoftwareType,DateUTC
2013-03-07 00:04:00,41.0,36.5,29.72,SSW,202,0.0,-999.0,84,-99.99,,,0.00,Acu-Link.com,2013-03-07 08:04:00,
2013-03-07 00:19:00,41.0,36.5,29.72,SSW,202,0.0,-999.0,84,-99.99,,,0.00,Acu-Link.com,2013-03-07 08:19:00,
2013-03-07 00:34:00,41.2,37.3,29.72,SSW,202,0.0,-999.0,86,-99.99,,,0.00,Acu-Link.com,2013-03-07 08:34:00,
2013-03-07 00:49:00,41.5,37.6,29.72,SSW,202,0.0,-999.0,86,-99.99,,,0.00,Acu-Link.com,2013-03-07 08:49:00,
2013-03-07 01:20:00,41.4,37.5,29.72,SSW,202,0.0,-999.0,86,-99.99,,,0.00,Acu-Link.com,2013-03-07 09:20:00,
2013-03-07 01:35:00,41.2,37.3,29.71,SSW,202,0.0,-999.0,86,-99.99,,,0.00,Acu-Link.com,2013-03-07 09:35:00,
2013-03-07 01:50:00,41.0,37.1,29.71,SSW,202,0.0,-999.0,86,-99.99,,,0.00,Acu-Link.com,2013-03-07 09:50:00,
2013-03-07 02:05:00,41.0,37.1,29.71,SSW,202,0.0,-999.0,86,-99.99,,,0.00,Acu-Link.com,2013-03-07 10:05:00,
2013-03-07 02:20:00,40.8,36.9,29.71,SSW,202,0.0,-999.0,86,-99.99,,,0.00,Acu-Link.com,2013-03-07 10:20:00,
2013-03-07 02:35:00,41.0,37.1,29.70,SSW,202,0.0,-999.0,86,-99.99,,,0.00,Acu-Link.com,2013-03-07 10:35:00,
2013-03-07 02:51:00,41.0,37.1,29.69,SSW,202,0.0,-999.0,86,-99.99,,,0.00,Acu-Link.com,2013-03-07 10:51:00,
2013-03-07 03:06:00,41.0,37.1,29.69,SSW,202,0.0,-999.0,86,-99.99,,,0.00,Acu-Link.com,2013-03-07 11:06:00,
2013-03-07 03:21:00,41.4,37.2,29.69,SSW,202,0.0,-999.0,85,-99.99,,,0.00,Acu-Link.com,2013-03-07 11:21:00,
2013-03-07 03:36:00,41.2,37.0,29.68,SSW,202,0.0,-999.0,85,-99.99,,,0.00,Acu-Link.com,2013-03-07 11:36:00,
2013-03-07 03:51:00,41.5,37.3,29.68,SSW,202,0.0,-999.0,85,-99.99,,,0.00,Acu-Link.com,2013-03-07 11:51:00,
2013-03-07 04:06:00,41.5,37.0,29.68,SSW,202,0.0,-999.0,84,-99.99,,,0.00,Acu-Link.com,2013-03-07 12:06:00,
2013-03-07 04:21:00,41.7,37.2,29.68,SSW,202,0.0,-999.0,84,-99.99,,,0.00,Acu-Link.com,2013-03-07 12:21:00,
2013-03-07 04:37:00,42.1,37.6,29.68,SSW,202,0.0,-999.0,84,-99.99,,,0.00,Acu-Link.com,2013-03-07 12:37:00,
2013-03-07 04:52:00,42.4,37.9,29.68,SSW,202,0.0,-999.0,84,-99.99,,,0.00,Acu-Link.com,2013-03-07 12:52:00,
2013-03-07 05:07:00,42.8,38.9,29.68,SSW,202,0.0,-999.0,86,-99.99,,,0.00,Acu-Link.com,2013-03-07 13:07:00,
2013-03-07 05:22:00,43.3,39.7,29.68,SSW,202,1.1,-999.0,87,-99.99,,,0.00,Acu-Link.com,2013-03-07 13:22:00,
2013-03-07 05:37:00,43.7,40.1,29.67,SSW,202,0.0,-999.0,87,-99.99,,,0.00,Acu-Link.com,2013-03-07 13:37:00,
2013-03-07 05:52:00,43.5,39.9,29.68,SSW,202,1.1,-999.0,87,-99.99,,,0.00,Acu-Link.com,2013-03-07 13:52:00,
2013-03-07 06:07:00,43.5,39.9,29.68,SSW,202,0.0,-999.0,87,-99.99,,,0.00,Acu-Link.com,2013-03-07 14:07:00,
2013-03-07 06:22:00,43.5,39.9,29.68,SSW,202,0.0,-999.0,87,-99.99,,,0.00,Acu-Link.com,2013-03-07 14:22:00,
2013-03-07 06:37:00,43.3,39.7,29.68,SSW,202,1.7,-999.0,87,-99.99,,,0.00,Acu-Link.com,2013-03-07 14:37:00,
2013-03-07 06:53:00,43.2,39.6,29.68,SSW,202,2.2,-999.0,87,-99.99,,,0.00,Acu-Link.com,2013-03-07 14:53:00,
2013-03-07 07:08:00,43.5,39.6,29.68,SSW,202,0.0,-999.0,86,-99.99,,,0.00,Acu-Link.com,2013-03-07 15:08:00,
2013-03-07 07:23:00,43.7,39.8,29.67,SSW,202,1.7,-999.0,86,-99.99,,,0.00,Acu-Link.com,2013-03-07 15:23:00,
2013-03-07 07:38:00,44.2,40.0,29.68,SSW,202,1.7,-999.0,85,-99.99,,,0.00,Acu-Link.com,2013-03-07 15:38:00,
2013-03-07 07:53:00,44.8,40.3,29.68,SSW,202,2.2,-999.0,84,-99.99,,,0.00,Acu-Link.com,2013-03-07 15:53:00,
2013-03-07 08:08:00,45.5,39.7,29.68,SSW,202,2.2,-999.0,80,-99.99,,,0.00,Acu-Link.com,2013-03-07 16:08:00,
2013-03-07 08:23:00,46.2,39.4,29.68,SSW,202,1.1,-999.0,77,-99.99,,,0.00,Acu-Link.com,2013-03-07 16:23:00,
2013-03-07 08:38:00,46.9,40.4,29.68,SSW,202,0.0,-999.0,78,-99.99,,,0.00,Acu-Link.com,2013-03-07 16:38:00,
2013-03-07 08:53:00,47.5,41.3,29.68,SSW,202,2.7,-999.0,79,-99.99,,,0.00,Acu-Link.com,2013-03-07 16:53:00,
2013-03-07 09:09:00,47.5,41.6,29.69,SSW,202,2.2,-999.0,80,-99.99,,,0.00,Acu-Link.com,2013-03-07 17:09:00,
2013-03-07 09:24:00,47.7,41.5,29.68,NNW,337,3.7,-999.0,79,-99.99,,,0.00,Acu-Link.com,2013-03-07 17:24:00,
2013-03-07 09:39:00,48.2,41.0,29.68,NNW,337,2.7,-999.0,76,-99.99,,,0.00,Acu-Link.com,2013-03-07 17:39:00,
2013-03-07 09:54:00,48.9,40.6,29.68,NNW,337,4.7,-999.0,73,-99.99,,,0.00,Acu-Link.com,2013-03-07 17:54:00,
2013-03-07 10:09:00,48.7,39.4,29.68,NNW,337,2.2,-999.0,70,-99.99,,,0.00,Acu-Link.com,2013-03-07 18:09:00,
2013-03-07 10:24:00,49.1,39.4,29.68,NNW,337,2.2,-999.0,69,-99.99,,,0.00,Acu-Link.com,2013-03-07 18:24:00,
2013-03-07 10:39:00,48.9,38.8,29.68,NNW,337,3.2,-999.0,68,-99.99,,,0.00,Acu-Link.com,2013-03-07 18:39:00,
2013-03-07 11:09:00,50.2,38.9,29.67,NNW,337,3.2,-999.0,65,-99.99,,,0.00,Acu-Link.com,2013-03-07 19:09:00,
2013-03-07 11:25:00,51.4,38.4,29.67,NNW,337,2.2,-999.0,61,-99.99,,,0.00,Acu-Link.com,2013-03-07 19:25:00,
2013-03-07 11:55:00,53.1,37.8,29.66,NNW,337,2.2,-999.0,56,-99.99,,,0.00,Acu-Link.com,2013-03-07 19:55:00,
2013-03-07 12:10:00,53.4,38.6,29.66,NNW,337,0.0,-999.0,57,-99.99,,,0.00,Acu-Link.com,2013-03-07 20:10:00,
2013-03-07 12:25:00,52.0,36.3,29.65,NNW,337,1.1,-999.0,55,-99.99,,,0.00,Acu-Link.com,2013-03-07 20:25:00,
2013-03-07 12:40:00,53.2,37.0,29.64,NNW,337,4.7,-999.0,54,-99.99,,,0.00,Acu-Link.com,2013-03-07 20:40:00,
2013-03-07 12:55:00,54.0,36.8,29.64,NNW,337,4.2,-999.0,52,-99.99,,,0.00,Acu-Link.com,2013-03-07 20:55:00,
2013-03-07 13:10:00,52.7,34.6,29.63,NNW,337,3.7,-999.0,50,-99.99,,,0.00,Acu-Link.com,2013-03-07 21:10:00,
2013-03-07 13:25:00,53.4,34.2,29.63,NNW,337,2.7,-999.0,48,-99.99,,,0.00,Acu-Link.com,2013-03-07 21:25:00,
2013-03-07 13:41:00,54.1,35.9,29.63,NNW,337,2.2,-999.0,50,-99.99,,,0.00,Acu-Link.com,2013-03-07 21:41:00,
2013-03-07 13:56:00,53.2,40.5,29.62,NNW,337,2.2,-999.0,62,-99.99,,,0.00,Acu-Link.com,2013-03-07 21:56:00,
2013-03-07 14:11:00,53.1,40.8,29.61,NNW,337,1.1,-999.0,63,-99.99,,,0.00,Acu-Link.com,2013-03-07 22:11:00,
2013-03-07 14:41:00,52.0,41.4,29.61,NNW,337,2.2,-999.0,67,-99.99,,,0.00,Acu-Link.com,2013-03-07 22:41:00,
2013-03-07 14:56:00,51.4,41.2,29.61,NNW,337,2.2,-999.0,68,-99.99,,,0.00,Acu-Link.com,2013-03-07 22:56:00,
2013-03-07 15:11:00,51.1,40.9,29.61,NNW,337,2.2,-999.0,68,-99.99,,,0.00,Acu-Link.com,2013-03-07 23:11:00,
2013-03-07 15:26:00,50.9,40.3,29.61,NNW,337,1.1,-999.0,67,-99.99,,,0.00,Acu-Link.com,2013-03-07 23:26:00,
2013-03-07 15:41:00,50.4,40.6,29.60,NNW,337,0.0,-999.0,69,-99.99,,,0.00,Acu-Link.com,2013-03-07 23:41:00,
2013-03-07 15:56:00,50.4,40.6,29.61,NNW,337,2.2,-999.0,69,-99.99,,,0.00,Acu-Link.com,2013-03-07 23:56:00,
2013-03-07 16:12:00,49.6,40.6,29.60,NNW,337,1.1,-999.0,71,-99.99,,,0.00,Acu-Link.com,2013-03-08 00:12:00,
2013-03-07 16:27:00,49.1,40.5,29.60,NNW,337,2.2,-999.0,72,-99.99,,,0.00,Acu-Link.com,2013-03-08 00:27:00,
2013-03-07 16:42:00,48.4,41.2,29.60,NNW,337,1.7,-999.0,76,-99.99,,,0.00,Acu-Link.com,2013-03-08 00:42:00,
2013-03-07 16:57:00,48.2,41.3,29.60,NNW,337,1.1,-999.0,77,-99.99,,,0.00,Acu-Link.com,2013-03-08 00:57:00,
2013-03-07 17:12:00,48.0,41.8,29.60,NNW,337,1.7,-999.0,79,-99.99,,,0.00,Acu-Link.com,2013-03-08 01:12:00,
2013-03-07 17:27:00,48.0,41.8,29.60,NNW,337,2.2,-999.0,79,-99.99,,,0.00,Acu-Link.com,2013-03-08 01:27:00,
2013-03-07 17:42:00,47.8,40.9,29.60,NNW,337,1.1,-999.0,77,-99.99,,,0.00,Acu-Link.com,2013-03-08 01:42:00,
2013-03-07 17:57:00,47.8,41.6,29.60,NNW,337,1.7,-999.0,79,-99.99,,,0.00,Acu-Link.com,2013-03-08 01:57:00,
2013-03-07 18:12:00,47.7,42.2,29.60,NNW,337,1.7,-999.0,81,-99.99,,,0.00,Acu-Link.com,2013-03-08 02:12:00,
2013-03-07 18:28:00,47.1,42.2,29.60,NNW,337,2.2,-999.0,83,-99.99,,,0.00,Acu-Link.com,2013-03-08 02:28:00,
2013-03-07 18:43:00,47.1,42.5,29.60,NNW,337,1.7,-999.0,84,-99.99,,,0.00,Acu-Link.com,2013-03-08 02:43:00,
2013-03-07 18:58:00,46.9,42.6,29.60,NNW,337,3.2,-999.0,85,-99.99,,,0.00,Acu-Link.com,2013-03-08 02:58:00,
2013-03-07 19:13:00,46.9,42.6,29.60,NNW,337,2.2,-999.0,85,-99.99,,,0.00,Acu-Link.com,2013-03-08 03:13:00,
2013-03-07 19:28:00,46.8,42.5,29.61,NNW,337,1.1,-999.0,85,-99.99,,,0.00,Acu-Link.com,2013-03-08 03:28:00,
2013-03-07 19:43:00,46.6,42.6,29.60,NNW,337,1.7,-999.0,86,-99.99,,,0.00,Acu-Link.com,2013-03-08 03:43:00,
2013-03-07 19:59:00,46.4,42.4,29.60,NNW,337,2.7,-999.0,86,-99.99,,,0.00,Acu-Link.com,2013-03-08 03:59:00,
2013-03-07 20:14:00,46.4,42.4,29.61,NNW,337,1.1,-999.0,86,-99.99,,,0.00,Acu-Link.com,2013-03-08 04:14:00,
2013-03-07 20:29:00,46.4,42.1,29.61,NNW,337,2.7,-999.0,85,-99.99,,,0.00,Acu-Link.com,2013-03-08 04:29:00,
2013-03-07 20:44:00,46.2,41.9,29.61,NNW,337,2.2,-999.0,85,-99.99,,,0.00,Acu-Link.com,2013-03-08 04:44:00,
2013-03-07 20:59:00,46.2,41.9,29.61,NNW,337,1.7,-999.0,85,-99.99,,,0.00,Acu-Link.com,2013-03-08 04:59:00,
2013-03-07 21:14:00,46.2,41.9,29.61,NNW,337,1.7,-999.0,85,-99.99,,,0.00,Acu-Link.com,2013-03-08 05:14:00,
2013-03-07 21:29:00,46.0,42.1,29.62,NNW,337,2.2,-999.0,86,-99.99,,,0.00,Acu-Link.com,2013-03-08 05:29:00,
2013-03-07 21:44:00,45.9,42.3,29.63,NNW,337,2.7,-999.0,87,-99.99,,,0.00,Acu-Link.com,2013-03-08 05:44:00,
2013-03-07 21:59:00,45.7,42.1,29.62,NNW,337,1.1,-999.0,87,-99.99,,,0.00,Acu-Link.com,2013-03-08 05:59:00,
2013-03-07 22:15:00,45.7,42.4,29.61,NNW,337,1.7,-999.0,88,-99.99,,,0.00,Acu-Link.com,2013-03-08 06:15:00,
2013-03-07 22:30:00,45.7,42.6,29.61,NNW,337,3.2,-999.0,89,-99.99,,,0.00,Acu-Link.com,2013-03-08 06:30:00,
2013-03-07 22:45:00,45.7,42.6,29.61,NNW,337,1.1,-999.0,89,-99.99,,,0.00,Acu-Link.com,2013-03-08 06:45:00,
2013-03-07 23:00:00,45.7,42.6,29.61,NNW,337,2.7,-999.0,89,-99.99,,,0.00,Acu-Link.com,2013-03-08 07:00:00,
2013-03-07 23:15:00,45.7,42.6,29.61,NNW,337,0.0,-999.0,89,-99.99,,,0.00,Acu-Link.com,2013-03-08 07:15:00,
2013-03-07 23:30:00,45.9,42.8,29.60,NNW,337,2.7,-999.0,89,-99.99,,,0.00,Acu-Link.com,2013-03-08 07:30:00,
2013-03-07 23:45:00,45.9,43.1,29.59,NNW,337,1.7,-999.0,90,-99.99,,,0.00,Acu-Link.com,2013-03-08 07:45:00,